createdAt,value
2022-08-26T00:00:03.572Z,14.60
2022-08-26T00:02:41.033Z,11.52
2022-08-26T00:05:10.199Z,12.40
2022-08-26T00:07:41.309Z,10.85
2022-08-26T00:10:12.548Z,12.93
2022-08-26T00:12:42.340Z,12.05
2022-08-26T00:15:12.704Z,12.18
2022-08-26T00:17:43.898Z,12.45
2022-08-26T00:20:14.079Z,13.57
2022-08-26T00:22:42.496Z,12.13
2022-08-26T00:25:12.418Z,11.40
2022-08-26T00:27:44.082Z,12.25
2022-08-26T00:30:22.894Z,13.68
2022-08-26T00:32:53.104Z,12.55
2022-08-26T00:35:22.139Z,13.32
2022-08-26T00:37:51.652Z,13.25
2022-08-26T00:40:22.498Z,13.48
2022-08-26T00:43:01.637Z,13.40
2022-08-26T00:45:31.125Z,12.75
2022-08-26T00:48:01.871Z,12.23
2022-08-26T00:50:35.219Z,13.75
2022-08-26T00:53:05.000Z,13.40
2022-08-26T00:55:38.228Z,13.82
2022-08-26T00:58:08.601Z,12.85
2022-08-26T01:00:37.158Z,13.80
2022-08-26T01:03:07.585Z,12.77
2022-08-26T01:05:41.565Z,13.40
2022-08-26T01:08:10.037Z,13.20
2022-08-26T01:10:38.457Z,13.68
2022-08-26T01:13:11.232Z,13.55
2022-08-26T01:15:43.450Z,13.65
2022-08-26T01:18:13.343Z,13.80
2022-08-26T01:20:45.754Z,13.13
2022-08-26T01:23:15.676Z,13.43
2022-08-26T01:25:45.533Z,12.63
2022-08-26T01:28:17.268Z,13.25
2022-08-26T01:30:50.940Z,13.15
2022-08-26T01:33:20.821Z,12.63
2022-08-26T01:35:50.429Z,15.60
2022-08-26T01:38:23.649Z,14.35
2022-08-26T01:40:53.636Z,13.60
2022-08-26T01:43:24.843Z,14.07
2022-08-26T01:45:56.944Z,15.45
2022-08-26T01:48:27.377Z,14.40
2022-08-26T01:50:57.393Z,14.70
2022-08-26T01:53:28.140Z,13.35
2022-08-26T01:55:58.772Z,13.50
2022-08-26T01:58:30.108Z,12.82
2022-08-26T02:01:00.016Z,12.68
2022-08-26T02:03:29.358Z,13.60
2022-08-26T02:05:59.254Z,13.07
2022-08-26T02:08:32.223Z,13.70
2022-08-26T02:11:01.238Z,13.40
2022-08-26T02:13:31.328Z,15.05
2022-08-26T02:16:00.553Z,15.30
2022-08-26T02:18:29.966Z,14.60
2022-08-26T02:20:58.785Z,12.60
2022-08-26T02:23:28.440Z,13.23
2022-08-26T02:26:04.298Z,14.82
2022-08-26T02:28:34.897Z,15.02
2022-08-26T02:31:03.415Z,13.68
2022-08-26T02:33:33.329Z,13.98
2022-08-26T02:36:04.256Z,14.32
2022-08-26T02:38:32.898Z,13.43
2022-08-26T02:41:03.462Z,13.32
2022-08-26T02:43:32.959Z,14.40
2022-08-26T02:46:02.704Z,12.88
2022-08-26T02:48:34.099Z,14.88
2022-08-26T02:51:03.843Z,13.05
2022-08-26T02:53:35.563Z,13.95
2022-08-26T02:56:05.888Z,13.32
2022-08-26T02:58:34.275Z,13.10
2022-08-26T03:01:04.739Z,16.83
2022-08-26T03:03:33.845Z,14.40
2022-08-26T03:06:02.341Z,14.15
2022-08-26T03:08:30.713Z,16.48
2022-08-26T03:10:59.244Z,14.32
2022-08-26T03:13:31.382Z,16.05
2022-08-26T03:16:02.701Z,16.75
2022-08-26T03:18:31.143Z,14.55
2022-08-26T03:20:59.586Z,14.73
2022-08-26T03:23:28.309Z,14.85
2022-08-26T03:25:57.074Z,13.65
2022-08-26T03:28:27.153Z,16.88
2022-08-26T03:30:57.050Z,14.93
2022-08-26T03:33:26.024Z,16.20
2022-08-26T03:35:55.687Z,14.38
2022-08-26T03:38:26.200Z,14.45
2022-08-26T03:40:56.281Z,14.75
2022-08-26T03:43:26.823Z,13.98
2022-08-26T03:45:56.621Z,15.10
2022-08-26T03:48:25.757Z,13.52
2022-08-26T03:50:54.132Z,13.73
2022-08-26T03:53:23.845Z,16.38
2022-08-26T03:55:52.264Z,15.10
2022-08-26T03:58:20.911Z,14.95
2022-08-26T04:00:55.417Z,13.68
2022-08-26T04:03:39.547Z,14.98
2022-08-26T04:06:08.245Z,14.40
2022-08-26T04:08:38.032Z,14.18
2022-08-26T04:11:07.554Z,14.18
2022-08-26T04:13:36.102Z,14.85
2022-08-26T04:16:04.722Z,14.75
2022-08-26T04:18:37.306Z,14.93
2022-08-26T04:21:09.531Z,14.15
2022-08-26T04:23:47.266Z,13.70
2022-08-26T04:26:16.636Z,15.00
2022-08-26T04:28:45.025Z,14.50
2022-08-26T04:31:14.629Z,13.98
2022-08-26T04:33:45.405Z,16.25
2022-08-26T04:36:14.916Z,13.48
2022-08-26T04:38:44.549Z,16.35
2022-08-26T04:41:15.018Z,15.50
2022-08-26T04:43:45.587Z,13.68
2022-08-26T04:46:14.683Z,15.27
2022-08-26T04:48:45.848Z,14.38
2022-08-26T04:51:14.264Z,14.98
2022-08-26T04:53:42.685Z,13.60
2022-08-26T04:56:11.139Z,13.23
2022-08-26T04:58:39.555Z,16.13
2022-08-26T05:01:08.364Z,15.32
2022-08-26T05:03:37.364Z,17.35
2022-08-26T05:06:12.319Z,14.07
2022-08-26T05:08:41.065Z,14.40
2022-08-26T05:11:09.991Z,14.88
2022-08-26T05:13:39.121Z,13.50
2022-08-26T05:16:08.675Z,14.43
2022-08-26T05:18:40.916Z,13.32
2022-08-26T05:21:18.780Z,14.88
2022-08-26T05:23:47.331Z,14.43
2022-08-26T05:26:17.967Z,14.10
2022-08-26T05:28:51.581Z,14.20
2022-08-26T05:31:24.450Z,13.55
2022-08-26T05:33:52.948Z,13.63
2022-08-26T05:36:23.803Z,13.45
2022-08-26T05:38:55.456Z,13.32
2022-08-26T05:41:27.650Z,15.45
2022-08-26T05:44:03.302Z,14.00
2022-08-26T05:46:31.790Z,14.52
2022-08-26T05:49:00.644Z,12.43
2022-08-26T05:51:30.961Z,11.82
2022-08-26T05:54:02.642Z,12.13
2022-08-26T05:56:32.500Z,11.65
2022-08-26T05:59:02.647Z,11.32
2022-08-26T06:01:35.691Z,10.63
2022-08-26T06:04:04.695Z,11.68
2022-08-26T06:06:35.877Z,13.70
2022-08-26T06:09:07.111Z,11.75
2022-08-26T06:11:39.277Z,11.32
2022-08-26T06:14:08.194Z,11.68
2022-08-26T06:16:38.263Z,11.18
2022-08-26T06:19:10.682Z,10.52
2022-08-26T06:21:42.947Z,11.35
2022-08-26T06:24:30.675Z,12.43
2022-08-26T06:27:01.494Z,10.75
2022-08-26T06:29:31.096Z,11.23
2022-08-26T06:31:59.869Z,11.35
2022-08-26T06:34:30.565Z,11.63
2022-08-26T06:37:02.561Z,10.00
2022-08-26T06:39:31.638Z,11.55
2022-08-26T06:42:00.219Z,10.10
2022-08-26T06:44:29.181Z,12.02
2022-08-26T06:46:57.992Z,10.57
2022-08-26T06:49:27.819Z,12.52
2022-08-26T06:51:58.349Z,12.43
2022-08-26T06:54:30.305Z,11.32
2022-08-26T06:56:59.121Z,11.88
2022-08-26T06:59:27.595Z,14.63
2022-08-26T07:01:56.213Z,15.75
2022-08-26T07:04:25.040Z,14.40
2022-08-26T07:06:56.901Z,13.75
2022-08-26T07:09:27.093Z,12.80
2022-08-26T07:11:57.335Z,13.05
2022-08-26T07:14:26.238Z,12.70
2022-08-26T07:16:55.207Z,15.13
2022-08-26T07:19:30.862Z,13.48
2022-08-26T07:22:01.818Z,15.30
2022-08-26T07:24:31.099Z,14.73
2022-08-26T07:27:02.984Z,13.05
2022-08-26T07:29:33.986Z,13.35
2022-08-26T07:32:02.463Z,13.18
2022-08-26T07:34:32.115Z,13.43
2022-08-26T07:37:01.584Z,15.02
2022-08-26T07:39:31.540Z,12.65
2022-08-26T07:42:01.358Z,12.27
2022-08-26T07:44:32.413Z,11.70
2022-08-26T07:47:01.479Z,16.35
2022-08-26T07:49:31.230Z,13.13
2022-08-26T07:52:00.101Z,14.98
2022-08-26T07:54:28.582Z,12.57
2022-08-26T07:56:57.229Z,15.75
2022-08-26T07:59:26.395Z,12.52
2022-08-26T08:01:59.165Z,12.98
2022-08-26T08:04:28.239Z,15.05
2022-08-26T08:06:56.825Z,16.70
2022-08-26T08:09:27.508Z,13.52
2022-08-26T08:11:57.537Z,14.75
2022-08-26T08:14:25.949Z,14.50
2022-08-26T08:16:56.050Z,13.30
2022-08-26T08:19:29.939Z,14.55
2022-08-26T08:22:17.096Z,15.73
2022-08-26T08:24:49.783Z,13.25
2022-08-26T08:27:23.269Z,13.18
2022-08-26T08:29:54.329Z,13.93
2022-08-26T08:32:25.305Z,14.82
2022-08-26T08:34:56.838Z,15.32
2022-08-26T08:37:25.546Z,15.00
2022-08-26T08:39:53.987Z,12.55
2022-08-26T08:42:38.817Z,12.05
2022-08-26T08:45:09.860Z,14.70
2022-08-26T08:47:42.117Z,15.35
2022-08-26T08:50:17.118Z,14.05
2022-08-26T08:52:47.305Z,15.50
2022-08-26T08:55:18.254Z,15.25
2022-08-26T08:57:53.750Z,13.10
2022-08-26T09:00:30.343Z,12.18
2022-08-26T09:03:03.597Z,14.55
2022-08-26T09:05:36.877Z,11.27
2022-08-26T09:08:08.430Z,11.02
2022-08-26T09:10:41.380Z,9.80
2022-08-26T09:13:16.825Z,8.38
2022-08-26T09:15:53.268Z,8.73
2022-08-26T09:18:34.584Z,8.95
2022-08-26T09:21:04.343Z,9.52
2022-08-26T09:23:33.197Z,8.88
2022-08-26T09:26:05.145Z,9.07
2022-08-26T09:28:33.541Z,8.75
2022-08-26T09:31:09.230Z,7.28
2022-08-26T09:33:41.194Z,7.50
2022-08-26T09:36:18.610Z,7.78
2022-08-26T09:38:47.142Z,7.65
2022-08-26T09:41:23.492Z,7.57
2022-08-26T09:44:06.990Z,6.80
2022-08-26T09:46:35.838Z,7.85
2022-08-26T09:49:19.270Z,7.35
2022-08-26T09:51:50.035Z,7.40
2022-08-26T09:54:30.258Z,6.63
2022-08-26T09:57:11.805Z,8.07
2022-08-26T09:59:40.202Z,7.55
2022-08-26T10:02:18.023Z,5.93
2022-08-26T10:04:52.225Z,5.60
2022-08-26T10:07:36.256Z,5.75
2022-08-26T10:10:09.250Z,5.90
2022-08-26T10:12:40.417Z,6.35
2022-08-26T10:15:11.837Z,6.65
2022-08-26T10:17:44.653Z,5.85
2022-08-26T10:20:23.599Z,5.30
2022-08-26T10:22:57.244Z,5.82
2022-08-26T10:25:28.413Z,4.40
2022-08-26T10:28:05.202Z,5.00
2022-08-26T10:30:35.374Z,4.93
2022-08-26T10:33:05.352Z,5.05
2022-08-26T10:35:35.134Z,4.90
2022-08-26T10:38:09.510Z,4.50
2022-08-26T10:40:44.673Z,4.15
2022-08-26T10:43:16.546Z,4.85
2022-08-26T10:45:46.147Z,4.90
2022-08-26T10:48:16.593Z,4.72
2022-08-26T10:50:48.547Z,4.65
2022-08-26T10:53:24.982Z,4.68
2022-08-26T10:55:58.252Z,5.20
2022-08-26T10:58:44.738Z,5.68
2022-08-26T11:01:40.757Z,5.28
2022-08-26T11:04:14.655Z,6.20
2022-08-26T11:06:45.942Z,5.65
2022-08-26T11:09:35.985Z,6.20
2022-08-26T11:12:10.046Z,5.72
2022-08-26T11:14:58.794Z,6.22
2022-08-26T11:17:45.533Z,7.60
2022-08-26T11:20:32.622Z,8.18
2022-08-26T11:23:16.595Z,8.70
2022-08-26T11:26:00.203Z,7.78
2022-08-26T11:28:35.448Z,8.27
2022-08-26T11:31:04.682Z,7.38
2022-08-26T11:33:58.051Z,7.65
2022-08-26T11:36:38.667Z,7.38
2022-08-26T11:39:17.328Z,8.40
2022-08-26T11:41:45.799Z,7.57
2022-08-26T11:44:19.356Z,7.75
2022-08-26T11:46:56.251Z,8.23
2022-08-26T11:49:25.558Z,7.63
2022-08-26T11:51:55.725Z,8.07
2022-08-26T11:54:35.369Z,7.65
2022-08-26T11:57:07.934Z,7.85
2022-08-26T11:59:43.446Z,7.47
2022-08-26T12:02:14.632Z,6.95
2022-08-26T12:04:43.801Z,6.80
2022-08-26T12:07:12.877Z,6.82
2022-08-26T12:09:52.618Z,7.68
2022-08-26T12:12:24.350Z,7.50
2022-08-26T12:15:09.178Z,7.13
2022-08-26T12:17:38.720Z,6.10
2022-08-26T12:20:07.614Z,6.07
2022-08-26T12:22:38.794Z,6.00
2022-08-26T12:25:12.927Z,5.70
2022-08-26T12:27:42.535Z,6.05
2022-08-26T12:30:14.031Z,5.80
2022-08-26T12:32:57.166Z,5.65
2022-08-26T12:35:28.779Z,5.80
2022-08-26T12:37:58.278Z,5.20
2022-08-26T12:40:27.462Z,5.82
2022-08-26T12:42:56.487Z,5.22
2022-08-26T12:45:30.431Z,4.53
2022-08-26T12:48:00.343Z,4.50
2022-08-26T12:50:29.826Z,4.80
2022-08-26T12:53:00.834Z,4.93
2022-08-26T12:55:36.410Z,5.05
2022-08-26T12:58:12.713Z,5.15
2022-08-26T13:00:46.334Z,5.85
2022-08-26T13:03:38.372Z,5.47
2022-08-26T13:06:15.513Z,5.32
2022-08-26T13:08:45.139Z,5.22
2022-08-26T13:11:15.524Z,5.15
2022-08-26T13:13:43.950Z,5.90
2022-08-26T13:16:14.628Z,5.60
2022-08-26T13:18:42.996Z,5.57
2022-08-26T13:21:18.171Z,5.47
2022-08-26T13:23:46.649Z,5.28
2022-08-26T13:26:15.355Z,5.10
2022-08-26T13:28:43.756Z,5.38
2022-08-26T13:31:12.534Z,6.00
2022-08-26T13:33:43.957Z,5.43
2022-08-26T13:36:13.234Z,5.03
2022-08-26T13:38:42.392Z,4.95
2022-08-26T13:41:17.528Z,5.15
2022-08-26T13:43:57.383Z,5.18
2022-08-26T13:46:28.436Z,5.40
2022-08-26T13:48:58.629Z,4.70
2022-08-26T13:51:27.647Z,4.93
2022-08-26T13:53:56.398Z,5.30
2022-08-26T13:56:27.407Z,5.10
2022-08-26T13:58:56.328Z,4.70
2022-08-26T14:01:25.236Z,4.63
2022-08-26T14:03:53.705Z,4.45
2022-08-26T14:06:23.800Z,4.15
2022-08-26T14:08:52.282Z,4.35
2022-08-26T14:11:22.402Z,4.50
2022-08-26T14:13:51.574Z,5.38
2022-08-26T14:16:24.623Z,5.35
2022-08-26T14:18:53.353Z,5.53
2022-08-26T14:21:23.222Z,5.03
2022-08-26T14:23:51.577Z,7.50
2022-08-26T14:26:28.436Z,7.20
2022-08-26T14:28:58.695Z,7.55
2022-08-26T14:31:29.075Z,7.55
2022-08-26T14:33:58.580Z,7.53
2022-08-26T14:36:32.580Z,7.68
2022-08-26T14:39:02.724Z,8.40
2022-08-26T14:41:31.866Z,8.10
2022-08-26T14:44:01.773Z,8.10
2022-08-26T14:46:32.013Z,7.95
2022-08-26T14:49:01.779Z,7.30
2022-08-26T14:51:32.227Z,7.57
2022-08-26T14:54:16.171Z,7.07
2022-08-26T14:56:46.313Z,7.88
2022-08-26T14:59:15.160Z,7.20
2022-08-26T15:01:43.636Z,6.47
2022-08-26T15:04:12.165Z,6.65
2022-08-26T15:06:42.069Z,6.65
2022-08-26T15:09:10.471Z,6.50
2022-08-26T15:11:38.979Z,6.63
2022-08-26T15:14:07.607Z,7.07
2022-08-26T15:16:43.414Z,7.18
2022-08-26T15:19:11.788Z,7.05
2022-08-26T15:21:41.634Z,7.07
2022-08-26T15:24:10.068Z,6.65
2022-08-26T15:26:38.478Z,6.47
2022-08-26T15:29:07.092Z,6.93
2022-08-26T15:31:36.638Z,6.30
2022-08-26T15:34:06.333Z,6.88
2022-08-26T15:36:34.805Z,7.05
2022-08-26T15:39:05.811Z,6.65
2022-08-26T15:41:37.531Z,6.70
2022-08-26T15:44:07.245Z,6.70
2022-08-26T15:46:38.557Z,7.28
2022-08-26T15:49:07.191Z,6.75
2022-08-26T15:51:45.663Z,6.65
2022-08-26T15:54:17.087Z,6.55
2022-08-26T15:56:47.321Z,6.80
2022-08-26T15:59:16.810Z,6.82
2022-08-26T16:01:45.643Z,6.78
2022-08-26T16:04:14.193Z,7.07
2022-08-26T16:06:43.518Z,9.02
2022-08-26T16:09:12.261Z,9.77
2022-08-26T16:11:42.000Z,6.95
2022-08-26T16:14:10.599Z,9.05
2022-08-26T16:16:40.315Z,7.40
2022-08-26T16:19:08.934Z,6.90
2022-08-26T16:21:38.420Z,6.90
2022-08-26T16:24:07.396Z,6.88
2022-08-26T16:26:36.552Z,7.18
2022-08-26T16:29:07.626Z,6.75
2022-08-26T16:31:37.265Z,7.35
2022-08-26T16:34:05.708Z,6.97
2022-08-26T16:36:34.344Z,7.30
2022-08-26T16:39:02.764Z,6.75
2022-08-26T16:41:32.082Z,7.15
2022-08-26T16:44:00.646Z,7.15
2022-08-26T16:46:30.692Z,7.18
2022-08-26T16:48:59.706Z,7.72
2022-08-26T16:51:29.615Z,27.67
2022-08-26T16:53:58.861Z,28.55
2022-08-26T16:56:34.063Z,7.53
2022-08-26T16:59:03.142Z,8.65
2022-08-26T17:01:33.000Z,10.27
2022-08-26T17:04:01.449Z,16.27
2022-08-26T17:06:31.896Z,5.90
2022-08-26T17:09:00.245Z,6.30
2022-08-26T17:11:28.734Z,8.95
2022-08-26T17:13:57.418Z,10.27
2022-08-26T17:16:27.050Z,13.13
2022-08-26T17:18:57.946Z,11.60
2022-08-26T17:21:27.073Z,11.25
2022-08-26T17:23:55.930Z,12.38
2022-08-26T17:26:24.376Z,13.50
2022-08-26T17:28:52.801Z,13.10
2022-08-26T17:31:21.811Z,12.27
2022-08-26T17:33:53.251Z,16.13
2022-08-26T17:36:27.939Z,17.50
2022-08-26T17:38:57.265Z,12.00
2022-08-26T17:41:26.035Z,31.10
2022-08-26T17:43:54.400Z,24.73
2022-08-26T17:46:22.873Z,29.35
2022-08-26T17:48:51.266Z,18.23
2022-08-26T17:51:20.321Z,18.02
2022-08-26T17:53:50.478Z,14.05
2022-08-26T17:56:20.219Z,12.82
2022-08-26T17:58:51.201Z,13.70
2022-08-26T18:01:20.536Z,12.80
2022-08-26T18:03:49.065Z,12.85
2022-08-26T18:06:17.511Z,17.75
2022-08-26T18:08:46.113Z,12.45
2022-08-26T18:11:16.721Z,12.10
2022-08-26T18:13:47.016Z,13.88
2022-08-26T18:16:16.770Z,13.75
2022-08-26T18:18:45.482Z,11.05
2022-08-26T18:21:15.568Z,15.07
2022-08-26T18:23:44.304Z,29.02
2022-08-26T18:26:18.265Z,14.38
2022-08-26T18:28:46.679Z,14.32
2022-08-26T18:31:15.817Z,14.43
2022-08-26T18:33:44.515Z,16.15
2022-08-26T18:36:19.782Z,95.80
2022-08-26T18:38:48.299Z,273.63
2022-08-26T18:41:21.525Z,154.43
2022-08-26T18:43:50.763Z,52.75
2022-08-26T18:46:20.046Z,44.00
2022-08-26T18:48:49.086Z,31.08
2022-08-26T18:51:20.203Z,41.08
2022-08-26T18:53:48.639Z,46.92
2022-08-26T18:56:18.638Z,21.95
2022-08-26T18:58:48.623Z,37.78
2022-08-26T19:01:17.608Z,21.85
2022-08-26T19:03:46.501Z,50.78
2022-08-26T19:06:15.626Z,16.85
2022-08-26T19:08:44.818Z,213.40
2022-08-26T19:11:13.859Z,333.08
2022-08-26T19:13:42.503Z,305.25
2022-08-26T19:16:42.284Z,133.75
2022-08-26T19:19:12.005Z,17.05
2022-08-26T19:21:40.719Z,15.15
2022-08-26T19:24:13.174Z,15.35
2022-08-26T19:26:43.303Z,14.32
2022-08-26T19:29:15.388Z,12.93
2022-08-26T19:31:47.869Z,15.30
2022-08-26T19:34:20.206Z,13.57
2022-08-26T19:36:50.670Z,12.77
2022-08-26T19:39:19.288Z,14.88
2022-08-26T19:41:47.690Z,13.27
2022-08-26T19:44:37.888Z,55.22
2022-08-26T19:47:08.894Z,28.30
2022-08-26T19:49:37.480Z,18.92
2022-08-26T19:52:06.697Z,11.40
2022-08-26T19:54:36.113Z,11.27
2022-08-26T19:57:04.701Z,11.55
2022-08-26T19:59:33.363Z,11.68
2022-08-26T20:02:02.266Z,12.23
2022-08-26T20:04:32.453Z,10.95
2022-08-26T20:07:01.083Z,11.57
2022-08-26T20:09:33.101Z,9.05
2022-08-26T20:12:02.647Z,12.77
2022-08-26T20:14:31.299Z,9.77
2022-08-26T20:16:59.791Z,10.07
2022-08-26T20:19:46.276Z,13.30
2022-08-26T20:22:16.671Z,16.65
2022-08-26T20:24:45.488Z,16.50
2022-08-26T20:27:14.118Z,17.08
2022-08-26T20:29:42.736Z,10.60
2022-08-26T20:32:12.088Z,8.52
2022-08-26T20:34:40.995Z,16.23
2022-08-26T20:37:09.668Z,16.58
2022-08-26T20:39:39.473Z,18.25
2022-08-26T20:42:20.328Z,7.35
2022-08-26T20:44:54.674Z,8.35
2022-08-26T20:47:23.717Z,11.73
2022-08-26T20:49:52.369Z,11.65
2022-08-26T20:52:21.185Z,20.30
2022-08-26T20:54:50.934Z,11.98
2022-08-26T20:57:19.317Z,14.88
2022-08-26T20:59:47.678Z,8.10
2022-08-26T21:02:16.076Z,8.52
2022-08-26T21:04:44.972Z,11.63
2022-08-26T21:07:13.481Z,8.43
2022-08-26T21:09:41.877Z,6.38
2022-08-26T21:12:12.009Z,9.15
2022-08-26T21:14:40.495Z,8.68
2022-08-26T21:17:08.870Z,6.78
2022-08-26T21:19:37.480Z,17.90
2022-08-26T21:22:06.010Z,7.05
2022-08-26T21:24:34.608Z,7.00
2022-08-26T21:27:12.184Z,7.43
2022-08-26T21:29:42.133Z,6.38
2022-08-26T21:32:12.408Z,8.32
2022-08-26T21:34:44.149Z,8.18
2022-08-26T21:37:15.355Z,7.93
2022-08-26T21:39:45.293Z,32.88
2022-08-26T21:42:13.772Z,11.07
2022-08-26T21:44:45.073Z,6.03
2022-08-26T21:47:21.267Z,11.43
2022-08-26T21:49:49.677Z,9.85
2022-08-26T21:52:18.495Z,6.60
2022-08-26T21:54:49.265Z,35.95
2022-08-26T21:57:18.342Z,12.85
2022-08-26T21:59:50.079Z,17.20
2022-08-26T22:02:18.512Z,6.10
2022-08-26T22:04:48.941Z,6.50
2022-08-26T22:07:19.207Z,15.95
2022-08-26T22:09:47.886Z,11.98
2022-08-26T22:12:18.074Z,6.60
2022-08-26T22:14:48.286Z,9.40
2022-08-26T22:17:17.094Z,6.30
2022-08-26T22:19:46.355Z,6.15
2022-08-26T22:22:15.261Z,5.95
2022-08-26T22:24:46.852Z,6.95
2022-08-26T22:27:15.581Z,6.60
2022-08-26T22:29:46.492Z,6.68
2022-08-26T22:32:16.356Z,6.05
2022-08-26T22:34:44.817Z,5.80
2022-08-26T22:37:13.725Z,16.23
2022-08-26T22:39:44.922Z,12.48
2022-08-26T22:42:13.683Z,6.60
2022-08-26T22:44:43.760Z,6.90
2022-08-26T22:47:14.772Z,7.28
2022-08-26T22:49:44.860Z,7.85
2022-08-26T22:52:13.770Z,5.97
2022-08-26T22:54:42.166Z,7.10
2022-08-26T22:57:10.714Z,6.45
2022-08-26T22:59:39.231Z,7.05
2022-08-26T23:02:11.964Z,7.18
2022-08-26T23:04:41.361Z,7.85
2022-08-26T23:07:11.222Z,10.07
2022-08-26T23:09:39.643Z,8.45
2022-08-26T23:12:08.419Z,6.90
2022-08-26T23:14:37.337Z,7.95
2022-08-26T23:17:05.813Z,7.32
2022-08-26T23:19:34.216Z,6.78
2022-08-26T23:22:02.818Z,8.48
2022-08-26T23:24:34.056Z,6.57
2022-08-26T23:27:02.483Z,11.82
2022-08-26T23:29:30.922Z,36.30
2022-08-26T23:32:00.343Z,13.95
2022-08-26T23:34:46.482Z,6.88
2022-08-26T23:37:16.545Z,7.38
2022-08-26T23:39:46.252Z,6.70
2022-08-26T23:42:14.977Z,6.90
2022-08-26T23:44:43.605Z,21.00
2022-08-26T23:47:12.937Z,19.98
2022-08-26T23:49:41.493Z,10.25
2022-08-26T23:52:27.846Z,6.53
2022-08-26T23:55:00.158Z,6.07
2022-08-26T23:57:28.583Z,6.00
2022-08-26T23:59:57.860Z,5.75
